createdAt,value
2018-07-10T00:00:05.602Z,3.70
2018-07-10T00:03:14.252Z,3.10
2018-07-10T00:05:54.113Z,3.70
2018-07-10T00:08:33.775Z,2.60
2018-07-10T00:11:14.067Z,5.53
2018-07-10T00:13:42.478Z,5.60
2018-07-10T00:16:10.851Z,3.10
2018-07-10T00:18:39.425Z,5.67
2018-07-10T00:21:08.072Z,6.33
2018-07-10T00:23:36.479Z,3.03
2018-07-10T00:26:05.079Z,5.10
2018-07-10T00:28:33.554Z,6.20
2018-07-10T00:31:01.945Z,4.10
2018-07-10T00:33:30.382Z,4.33
2018-07-10T00:35:58.874Z,4.80
2018-07-10T00:38:38.447Z,4.80
2018-07-10T00:41:06.973Z,3.90
2018-07-10T00:43:35.399Z,4.20
2018-07-10T00:46:03.818Z,3.63
2018-07-10T00:48:32.415Z,4.17
2018-07-10T00:51:00.969Z,5.10
2018-07-10T00:53:29.485Z,5.80
2018-07-10T00:55:58.026Z,5.33
2018-07-10T00:58:26.509Z,3.53
2018-07-10T01:00:54.633Z,4.53
2018-07-10T01:03:23.789Z,3.80
2018-07-10T01:05:52.293Z,5.13
2018-07-10T01:08:20.821Z,4.07
2018-07-10T01:10:53.791Z,2.90
2018-07-10T01:13:22.539Z,3.87
2018-07-10T01:15:50.988Z,2.70
2018-07-10T01:18:22.464Z,5.60
2018-07-10T01:20:50.923Z,3.97
2018-07-10T01:23:20.890Z,4.80
2018-07-10T01:25:49.600Z,3.13
2018-07-10T01:28:18.046Z,3.87
2018-07-10T01:30:46.510Z,3.77
2018-07-10T01:33:15.007Z,3.80
2018-07-10T01:35:43.455Z,3.30
2018-07-10T01:38:11.904Z,3.57
2018-07-10T01:40:40.350Z,3.80
2018-07-10T01:43:08.797Z,3.37
2018-07-10T01:45:37.317Z,3.23
2018-07-10T01:48:05.970Z,4.43
2018-07-10T01:50:34.462Z,3.53
2018-07-10T01:53:02.851Z,5.17
2018-07-10T01:55:31.696Z,3.37
2018-07-10T01:58:00.157Z,3.10
2018-07-10T02:00:42.361Z,3.70
2018-07-10T02:03:11.461Z,1.73
2018-07-10T02:05:40.606Z,2.37
2018-07-10T02:08:09.062Z,2.20
2018-07-10T02:10:37.433Z,3.80
2018-07-10T02:13:05.942Z,4.17
2018-07-10T02:15:34.417Z,3.83
2018-07-10T02:18:02.905Z,4.00
2018-07-10T02:20:44.784Z,4.87
2018-07-10T02:23:13.265Z,3.83
2018-07-10T02:25:41.831Z,3.13
2018-07-10T02:28:10.285Z,4.07
2018-07-10T02:30:38.746Z,1.90
2018-07-10T02:33:07.346Z,3.40
2018-07-10T02:35:35.770Z,3.47
2018-07-10T02:38:04.197Z,4.30
2018-07-10T02:40:32.957Z,4.60
2018-07-10T02:43:01.393Z,5.40
2018-07-10T02:45:29.855Z,4.93
2018-07-10T02:47:58.294Z,3.87
2018-07-10T02:50:26.890Z,3.77
2018-07-10T02:52:55.406Z,3.80
2018-07-10T02:55:24.142Z,4.87
2018-07-10T02:57:52.605Z,5.60
2018-07-10T03:00:21.223Z,5.20
2018-07-10T03:02:50.938Z,3.53
2018-07-10T03:05:19.988Z,4.70
2018-07-10T03:07:48.826Z,4.00
2018-07-10T03:10:17.298Z,4.40
2018-07-10T03:12:45.744Z,3.80
2018-07-10T03:15:14.979Z,5.60
2018-07-10T03:17:43.666Z,2.83
2018-07-10T03:20:12.136Z,4.63
2018-07-10T03:22:40.565Z,3.97
2018-07-10T03:25:09.629Z,3.40
2018-07-10T03:27:38.082Z,3.27
2018-07-10T03:30:06.577Z,6.53
2018-07-10T03:32:35.037Z,5.43
2018-07-10T03:35:03.483Z,1.83
2018-07-10T03:37:31.969Z,3.97
2018-07-10T03:40:00.555Z,7.23
2018-07-10T03:42:28.986Z,4.00
2018-07-10T03:44:57.497Z,4.63
2018-07-10T03:47:26.997Z,8.63
2018-07-10T03:49:55.573Z,4.03
2018-07-10T03:52:27.332Z,3.30
2018-07-10T03:54:56.378Z,2.60
2018-07-10T03:57:24.989Z,5.70
2018-07-10T03:59:55.819Z,4.53
2018-07-10T04:02:25.098Z,3.60
2018-07-10T04:04:54.074Z,5.40
2018-07-10T04:07:23.158Z,4.60
2018-07-10T04:09:54.845Z,3.67
2018-07-10T04:12:27.973Z,3.37
2018-07-10T04:14:56.620Z,3.37
2018-07-10T04:17:29.278Z,3.13
2018-07-10T04:19:57.782Z,3.53
2018-07-10T04:22:25.889Z,4.17
2018-07-10T04:24:54.420Z,4.33
2018-07-10T04:27:30.273Z,4.30
2018-07-10T04:30:06.996Z,3.67
2018-07-10T04:32:37.385Z,2.20
2018-07-10T04:35:07.101Z,4.20
2018-07-10T04:37:37.840Z,6.07
2018-07-10T04:40:06.304Z,3.50
2018-07-10T04:43:01.550Z,2.80
2018-07-10T04:45:38.623Z,7.03
2018-07-10T04:48:13.417Z,4.70
2018-07-10T04:50:45.443Z,4.93
2018-07-10T04:53:23.475Z,6.53
2018-07-10T04:55:52.538Z,4.50
2018-07-10T04:58:21.763Z,4.63
2018-07-10T05:01:01.479Z,1.93
2018-07-10T05:03:31.007Z,5.33
2018-07-10T05:06:03.139Z,5.57
2018-07-10T05:08:31.686Z,6.77
2018-07-10T05:11:00.128Z,5.50
2018-07-10T05:13:28.889Z,5.03
2018-07-10T05:15:59.606Z,4.60
2018-07-10T05:18:28.085Z,2.83
2018-07-10T05:20:56.834Z,3.90
2018-07-10T05:23:26.489Z,5.40
2018-07-10T05:25:56.538Z,4.35
2018-07-10T05:28:25.842Z,3.03
2018-07-10T05:30:58.734Z,5.37
2018-07-10T05:33:27.665Z,3.97
2018-07-10T05:35:56.484Z,4.80
2018-07-10T05:38:31.329Z,1.53
2018-07-10T05:41:00.216Z,6.73
2018-07-10T05:43:28.800Z,3.13
2018-07-10T05:45:57.702Z,4.40
2018-07-10T05:48:26.483Z,3.90
2018-07-10T05:50:54.934Z,2.70
2018-07-10T05:53:23.398Z,2.30
2018-07-10T05:55:51.856Z,2.37
2018-07-10T05:58:20.304Z,6.27
2018-07-10T06:00:48.786Z,7.53
2018-07-10T06:03:17.218Z,7.13
2018-07-10T06:05:45.809Z,6.60
2018-07-10T06:08:14.333Z,4.10
2018-07-10T06:10:43.030Z,3.50
2018-07-10T06:13:12.358Z,5.33
2018-07-10T06:15:40.861Z,5.33
2018-07-10T06:18:09.337Z,4.50
2018-07-10T06:20:39.382Z,5.77
2018-07-10T06:23:07.869Z,5.80
2018-07-10T06:25:36.394Z,4.60
2018-07-10T06:28:12.372Z,4.57
2018-07-10T06:30:44.613Z,5.77
2018-07-10T06:33:20.557Z,4.53
2018-07-10T06:36:21.353Z,5.70
2018-07-10T06:38:51.802Z,2.50
2018-07-10T06:41:20.222Z,3.17
2018-07-10T06:43:52.662Z,5.80
2018-07-10T06:46:28.748Z,5.10
2018-07-10T06:49:00.530Z,6.57
2018-07-10T06:51:28.963Z,4.57
2018-07-10T06:54:01.691Z,5.50
2018-07-10T06:56:30.183Z,7.00
2018-07-10T06:58:58.736Z,5.63
2018-07-10T07:01:27.284Z,1.83
2018-07-10T07:03:59.082Z,4.20
2018-07-10T07:06:27.602Z,7.20
2018-07-10T07:08:56.636Z,4.57
2018-07-10T07:11:26.189Z,8.73
2018-07-10T07:13:55.552Z,5.13
2018-07-10T07:16:24.042Z,4.63
2018-07-10T07:18:52.473Z,4.83
2018-07-10T07:21:21.431Z,6.13
2018-07-10T07:23:49.911Z,6.07
2018-07-10T07:26:18.401Z,7.30
2018-07-10T07:28:46.890Z,6.93
2018-07-10T07:31:15.925Z,8.00
2018-07-10T07:33:44.351Z,8.17
2018-07-10T07:36:12.857Z,2.53
2018-07-10T07:38:41.353Z,5.60
2018-07-10T07:41:09.463Z,6.03
2018-07-10T07:43:37.908Z,6.43
2018-07-10T07:46:06.394Z,6.43
2018-07-10T07:48:34.956Z,6.10
2018-07-10T07:51:03.705Z,3.87
2018-07-10T07:53:32.566Z,8.60
2018-07-10T07:56:01.513Z,3.43
2018-07-10T07:58:29.994Z,10.23
2018-07-10T08:00:58.418Z,5.87
2018-07-10T08:03:26.858Z,5.57
2018-07-10T08:05:55.384Z,4.47
2018-07-10T08:08:23.482Z,5.27
2018-07-10T08:10:52.234Z,9.23
2018-07-10T08:13:20.633Z,4.13
2018-07-10T08:15:49.122Z,3.97
2018-07-10T08:18:17.657Z,8.50
2018-07-10T08:20:46.153Z,5.13
2018-07-10T08:23:15.422Z,7.87
2018-07-10T08:25:43.913Z,6.83
2018-07-10T08:28:12.373Z,5.77
2018-07-10T08:30:40.841Z,5.27
2018-07-10T08:33:09.404Z,5.33
2018-07-10T08:35:37.902Z,4.53
2018-07-10T08:38:06.330Z,7.37
2018-07-10T08:40:34.835Z,4.27
2018-07-10T08:43:03.447Z,6.73
2018-07-10T08:45:31.878Z,7.70
2018-07-10T08:48:01.942Z,3.27
2018-07-10T08:50:30.441Z,6.37
2018-07-10T08:52:58.950Z,5.37
2018-07-10T08:55:27.401Z,5.60
2018-07-10T08:57:56.078Z,7.10
2018-07-10T09:00:24.505Z,8.57
2018-07-10T09:02:53.009Z,4.20
2018-07-10T09:05:21.509Z,6.20
2018-07-10T09:07:50.011Z,7.17
2018-07-10T09:10:18.445Z,6.90
2018-07-10T09:12:46.875Z,6.73
2018-07-10T09:15:16.006Z,11.33
2018-07-10T09:17:44.446Z,9.03
2018-07-10T09:20:20.497Z,8.17
2018-07-10T09:22:48.950Z,8.17
2018-07-10T09:25:17.449Z,2.63
2018-07-10T09:27:45.957Z,7.07
2018-07-10T09:30:14.407Z,7.77
2018-07-10T09:32:44.889Z,6.03
2018-07-10T09:35:13.321Z,4.90
2018-07-10T09:37:43.918Z,6.70
2018-07-10T09:40:16.595Z,7.17
2018-07-10T09:43:15.958Z,7.03
2018-07-10T09:45:44.398Z,5.40
2018-07-10T09:48:12.898Z,7.67
2018-07-10T09:50:41.370Z,6.27
2018-07-10T09:53:09.939Z,7.60
2018-07-10T09:55:38.430Z,6.93
2018-07-10T09:58:07.923Z,3.73
2018-07-10T10:00:42.030Z,7.03
2018-07-10T10:03:10.686Z,8.37
2018-07-10T10:05:41.713Z,5.07
2018-07-10T10:08:10.408Z,5.53
2018-07-10T10:10:39.317Z,7.30
2018-07-10T10:13:07.894Z,5.83
2018-07-10T10:15:37.067Z,7.27
2018-07-10T10:18:07.525Z,6.30
2018-07-10T10:20:39.486Z,5.67
2018-07-10T10:23:08.893Z,6.70
2018-07-10T10:25:39.278Z,10.20
2018-07-10T10:28:09.172Z,6.67
2018-07-10T10:30:38.732Z,6.87
2018-07-10T10:33:07.724Z,6.53
2018-07-10T10:35:36.202Z,3.97
2018-07-10T10:38:05.054Z,7.37
2018-07-10T10:40:36.157Z,8.80
2018-07-10T10:43:06.217Z,8.50
2018-07-10T10:45:36.578Z,8.87
2018-07-10T10:48:05.293Z,8.47
2018-07-10T10:50:33.761Z,7.67
2018-07-10T10:53:02.906Z,8.20
2018-07-10T10:55:32.169Z,8.23
2018-07-10T10:58:00.614Z,8.13
2018-07-10T11:00:29.694Z,8.17
2018-07-10T11:02:58.293Z,5.10
2018-07-10T11:05:28.166Z,5.80
2018-07-10T11:07:57.285Z,11.13
2018-07-10T11:10:25.753Z,4.33
2018-07-10T11:12:55.102Z,6.67
2018-07-10T11:15:23.568Z,6.23
2018-07-10T11:17:58.916Z,7.93
2018-07-10T11:22:38.833Z,7.40
2018-07-10T11:25:10.234Z,9.30
2018-07-10T11:28:16.770Z,9.13
2018-07-10T11:30:45.337Z,6.20
2018-07-10T11:33:14.481Z,6.83
2018-07-10T11:35:42.983Z,10.30
2018-07-10T11:38:12.849Z,7.80
2018-07-10T11:40:44.141Z,6.77
2018-07-10T11:43:13.054Z,11.13
2018-07-10T11:45:41.588Z,7.83
2018-07-10T11:48:10.662Z,4.57
2018-07-10T11:50:39.137Z,8.47
2018-07-10T11:53:07.683Z,5.07
2018-07-10T11:55:36.513Z,12.97
2018-07-10T11:58:06.035Z,6.63
2018-07-10T12:00:34.539Z,10.00
2018-07-10T12:03:05.213Z,5.70
2018-07-10T12:05:37.036Z,11.40
2018-07-10T12:08:05.752Z,12.30
2018-07-10T12:10:35.375Z,7.73
2018-07-10T12:13:03.869Z,13.23
2018-07-10T12:15:32.850Z,9.17
2018-07-10T12:18:01.737Z,7.50
2018-07-10T12:20:41.593Z,11.37
2018-07-10T12:23:10.821Z,6.40
2018-07-10T12:25:44.008Z,7.07
2018-07-10T12:28:13.485Z,12.00
2018-07-10T12:30:41.980Z,9.23
2018-07-10T12:33:10.723Z,9.30
2018-07-10T12:35:39.293Z,8.13
2018-07-10T12:38:07.416Z,12.43
2018-07-10T12:40:36.031Z,10.30
2018-07-10T12:43:04.477Z,12.30
2018-07-10T12:45:32.990Z,9.43
2018-07-10T12:48:01.434Z,10.80
2018-07-10T12:50:29.894Z,10.17
2018-07-10T12:52:59.029Z,8.17
2018-07-10T12:55:27.842Z,10.90
2018-07-10T12:57:57.010Z,11.23
2018-07-10T13:00:27.638Z,13.90
2018-07-10T13:02:57.282Z,9.63
2018-07-10T13:05:31.794Z,9.63
2018-07-10T13:08:00.236Z,12.90
2018-07-10T13:10:28.669Z,12.10
2018-07-10T13:12:57.170Z,12.63
2018-07-10T13:15:25.702Z,12.10
2018-07-10T13:17:56.447Z,13.53
2018-07-10T13:20:24.907Z,11.77
2018-07-10T13:22:53.396Z,13.47
2018-07-10T13:25:21.971Z,12.47
2018-07-10T13:27:50.719Z,10.00
2018-07-10T13:30:19.132Z,9.03
2018-07-10T13:32:47.630Z,10.97
2018-07-10T13:35:16.123Z,12.37
2018-07-10T13:37:45.460Z,10.30
2018-07-10T13:40:13.957Z,12.33
2018-07-10T13:42:51.266Z,13.43
2018-07-10T13:45:21.990Z,12.10
2018-07-10T13:47:50.483Z,12.60
2018-07-10T13:50:21.299Z,12.80
2018-07-10T13:52:49.949Z,10.57
2018-07-10T13:55:18.685Z,10.33
2018-07-10T13:58:05.701Z,10.50
2018-07-10T14:00:37.342Z,11.90
2018-07-10T14:03:05.866Z,10.97
2018-07-10T14:05:34.301Z,8.40
2018-07-10T14:08:02.795Z,6.63
2018-07-10T14:10:31.267Z,5.97
2018-07-10T14:13:00.034Z,10.40
2018-07-10T14:15:28.557Z,9.10
2018-07-10T14:17:57.457Z,9.07
2018-07-10T14:20:26.033Z,5.30
2018-07-10T14:22:55.226Z,3.87
2018-07-10T14:25:23.702Z,6.63
2018-07-10T14:27:52.190Z,7.17
2018-07-10T14:30:20.693Z,12.67
2018-07-10T14:32:49.109Z,9.70
2018-07-10T14:35:17.617Z,9.43
2018-07-10T14:37:47.292Z,7.73
2018-07-10T14:40:15.957Z,10.80
2018-07-10T14:42:44.455Z,9.40
2018-07-10T14:45:12.912Z,8.10
2018-07-10T14:47:41.357Z,11.17
2018-07-10T14:50:09.918Z,11.13
2018-07-10T14:52:38.390Z,12.87
2018-07-10T14:55:06.944Z,13.07
2018-07-10T14:57:35.017Z,15.37
2018-07-10T15:00:03.492Z,9.33
2018-07-10T15:02:31.941Z,13.57
2018-07-10T15:05:00.456Z,7.20
2018-07-10T15:07:28.906Z,9.97
2018-07-10T15:09:57.313Z,7.37
2018-07-10T15:12:25.741Z,16.63
2018-07-10T15:14:54.811Z,11.70
2018-07-10T15:17:28.360Z,14.97
2018-07-10T15:19:57.490Z,8.00
2018-07-10T15:22:25.882Z,13.83
2018-07-10T15:24:54.069Z,11.60
2018-07-10T15:27:22.526Z,10.20
2018-07-10T15:29:50.914Z,9.03
2018-07-10T15:32:19.416Z,13.40
2018-07-10T15:34:47.827Z,14.23
2018-07-10T15:37:16.299Z,17.60
2018-07-10T15:39:44.748Z,15.13
2018-07-10T15:42:13.297Z,20.83
2018-07-10T15:44:41.680Z,18.57
2018-07-10T15:47:10.125Z,17.63
2018-07-10T15:49:38.619Z,14.40
2018-07-10T15:52:07.051Z,19.30
2018-07-10T15:54:35.613Z,16.63
2018-07-10T15:57:04.072Z,15.77
2018-07-10T15:59:32.523Z,10.97
2018-07-10T16:02:00.981Z,16.50
2018-07-10T16:04:29.529Z,16.90
2018-07-10T16:06:57.993Z,18.47
2018-07-10T16:09:26.652Z,13.37
2018-07-10T16:11:57.557Z,9.57
2018-07-10T16:14:27.145Z,14.80
2018-07-10T16:16:57.132Z,18.33
2018-07-10T16:19:31.451Z,15.53
2018-07-10T16:22:04.488Z,15.27
2018-07-10T16:24:37.725Z,17.43
2018-07-10T16:27:06.750Z,13.53
2018-07-10T16:29:35.177Z,8.30
2018-07-10T16:32:06.233Z,14.47
2018-07-10T16:34:34.996Z,14.07
2018-07-10T16:37:03.813Z,15.13
2018-07-10T16:39:32.413Z,12.70
2018-07-10T16:42:06.297Z,16.57
2018-07-10T16:44:35.410Z,20.87
2018-07-10T16:47:09.248Z,15.57
2018-07-10T16:49:44.191Z,17.87
2018-07-10T16:52:30.441Z,14.70
2018-07-10T16:54:59.025Z,19.50
2018-07-10T16:57:30.732Z,8.97
2018-07-10T16:59:59.040Z,19.10
2018-07-10T17:02:27.949Z,21.80
2018-07-10T17:04:57.996Z,15.88
2018-07-10T17:07:26.437Z,18.03
2018-07-10T17:09:54.947Z,19.67
2018-07-10T17:12:23.583Z,14.27
2018-07-10T17:14:55.017Z,14.80
2018-07-10T17:17:24.597Z,13.80
2018-07-10T17:19:55.177Z,15.90
2018-07-10T17:22:25.244Z,17.83
2018-07-10T17:24:55.046Z,11.80
2018-07-10T17:27:30.750Z,15.43
2018-07-10T17:29:59.734Z,12.83
2018-07-10T17:32:28.289Z,17.13
2018-07-10T17:34:57.592Z,9.90
2018-07-10T17:37:26.336Z,8.00
2018-07-10T17:39:55.214Z,11.30
2018-07-10T17:42:23.671Z,8.53
2018-07-10T17:44:52.094Z,12.73
2018-07-10T17:47:20.722Z,8.33
2018-07-10T17:49:48.882Z,9.33
2018-07-10T17:52:17.353Z,11.10
2018-07-10T17:54:46.003Z,7.73
2018-07-10T17:57:15.378Z,9.00
2018-07-10T17:59:44.389Z,7.37
2018-07-10T18:02:13.047Z,5.97
2018-07-10T18:04:41.478Z,6.97
2018-07-10T18:07:09.955Z,8.20
2018-07-10T18:09:38.411Z,8.20
2018-07-10T18:12:06.959Z,11.57
2018-07-10T18:14:36.127Z,8.87
2018-07-10T18:17:04.614Z,8.77
2018-07-10T18:19:33.809Z,11.07
2018-07-10T18:22:02.805Z,12.57
2018-07-10T18:24:31.297Z,9.87
2018-07-10T18:26:59.787Z,7.60
2018-07-10T18:29:28.194Z,8.63
2018-07-10T18:31:57.448Z,7.03
2018-07-10T18:34:25.933Z,6.03
2018-07-10T18:36:54.601Z,8.23
2018-07-10T18:39:23.093Z,8.10
2018-07-10T18:41:52.317Z,8.83
2018-07-10T18:44:20.829Z,7.70
2018-07-10T18:46:49.873Z,10.10
2018-07-10T18:49:19.497Z,8.17
2018-07-10T18:51:48.385Z,10.90
2018-07-10T18:54:18.253Z,5.67
2018-07-10T18:56:46.679Z,9.27
2018-07-10T18:59:19.276Z,8.03
2018-07-10T19:01:56.314Z,10.07
2018-07-10T19:04:35.284Z,8.83
2018-07-10T19:07:03.769Z,8.33
2018-07-10T19:09:35.490Z,8.53
2018-07-10T19:12:08.972Z,10.27
2018-07-10T19:14:37.543Z,11.70
2018-07-10T19:17:11.329Z,12.60
2018-07-10T19:19:42.954Z,11.40
2018-07-10T19:22:11.666Z,8.23
2018-07-10T19:24:41.930Z,5.63
2018-07-10T19:27:14.468Z,13.63
2018-07-10T19:29:48.209Z,9.93
2018-07-10T19:32:17.526Z,10.70
2018-07-10T19:34:47.812Z,8.57
2018-07-10T19:37:16.314Z,11.83
2018-07-10T19:39:44.800Z,9.77
2018-07-10T19:42:12.918Z,12.23
2018-07-10T19:44:41.377Z,11.90
2018-07-10T19:47:09.864Z,9.57
2018-07-10T19:49:38.689Z,7.83
2018-07-10T19:52:07.189Z,5.77
2018-07-10T19:54:35.666Z,11.47
2018-07-10T19:57:05.132Z,6.97
2018-07-10T19:59:33.633Z,9.03
2018-07-10T20:02:04.200Z,7.50
2018-07-10T20:04:41.877Z,16.20
2018-07-10T20:07:17.582Z,8.93
2018-07-10T20:09:53.725Z,8.17
2018-07-10T20:12:33.043Z,7.20
2018-07-10T20:15:11.055Z,9.50
2018-07-10T20:17:45.466Z,7.77
2018-07-10T20:20:17.741Z,13.60
2018-07-10T20:23:20.909Z,13.33
2018-07-10T20:25:59.221Z,9.77
2018-07-10T20:28:37.297Z,8.53
2018-07-10T20:31:08.553Z,8.90
2018-07-10T20:33:47.973Z,5.57
2018-07-10T20:36:22.357Z,9.67
2018-07-10T20:38:50.984Z,8.37
2018-07-10T20:41:20.860Z,6.60
2018-07-10T20:43:52.145Z,9.80
2018-07-10T20:46:21.406Z,6.63
2018-07-10T20:48:55.390Z,6.50
2018-07-10T20:51:30.665Z,7.40
2018-07-10T20:54:18.162Z,9.43
2018-07-10T20:56:59.113Z,10.13
2018-07-10T20:59:40.857Z,10.57
2018-07-10T21:02:16.719Z,4.83
2018-07-10T21:04:51.882Z,8.40
2018-07-10T21:07:27.341Z,6.30
2018-07-10T21:10:01.006Z,10.27
2018-07-10T21:12:36.618Z,8.43
2018-07-10T21:15:08.890Z,9.17
2018-07-10T21:19:53.094Z,5.93
2018-07-10T21:22:48.382Z,8.50
2018-07-10T21:25:28.283Z,7.30
2018-07-10T21:28:39.325Z,7.97
2018-07-10T21:32:20.225Z,4.90
2018-07-10T21:34:49.941Z,7.60
2018-07-10T21:37:24.637Z,7.90
2018-07-10T21:40:07.969Z,11.30
2018-07-10T21:42:43.241Z,4.70
2018-07-10T21:47:24.308Z,4.43
2018-07-10T21:49:54.524Z,4.57
2018-07-10T21:52:23.480Z,5.77
2018-07-10T21:54:51.932Z,7.73
2018-07-10T21:57:26.054Z,8.53
2018-07-10T21:59:57.439Z,6.17
2018-07-10T22:02:25.951Z,5.83
2018-07-10T22:04:55.783Z,7.67
2018-07-10T22:07:25.322Z,6.70
2018-07-10T22:09:53.946Z,7.20
2018-07-10T22:12:22.835Z,6.10
2018-07-10T22:14:51.250Z,8.13
2018-07-10T22:17:24.225Z,6.83
2018-07-10T22:19:54.801Z,10.17
2018-07-10T22:22:23.431Z,10.53
2018-07-10T22:24:52.770Z,9.33
2018-07-10T22:27:21.709Z,6.07
2018-07-10T22:29:56.077Z,5.87
2018-07-10T22:32:30.781Z,7.97
2018-07-10T22:34:59.269Z,5.97
2018-07-10T22:37:27.732Z,7.70
2018-07-10T22:39:56.291Z,5.63
2018-07-10T22:42:24.710Z,6.83
2018-07-10T22:44:55.466Z,6.97
2018-07-10T22:47:30.617Z,6.43
2018-07-10T22:50:04.121Z,5.80
2018-07-10T22:52:32.593Z,5.10
2018-07-10T22:55:01.094Z,5.50
2018-07-10T22:57:29.605Z,5.63
2018-07-10T22:59:58.363Z,9.10
2018-07-10T23:02:26.808Z,7.33
2018-07-10T23:04:55.237Z,6.47
2018-07-10T23:07:23.709Z,6.43
2018-07-10T23:09:52.260Z,6.50
2018-07-10T23:12:20.753Z,9.37
2018-07-10T23:14:49.226Z,5.27
2018-07-10T23:17:17.671Z,5.27
2018-07-10T23:19:46.137Z,4.30
2018-07-10T23:22:14.583Z,5.77
2018-07-10T23:24:42.984Z,7.57
2018-07-10T23:27:11.428Z,6.67
2018-07-10T23:29:40.358Z,5.93
2018-07-10T23:32:08.943Z,7.33
2018-07-10T23:34:37.381Z,5.33
2018-07-10T23:37:12.447Z,6.40
2018-07-10T23:39:46.696Z,4.97
2018-07-10T23:42:22.308Z,6.13
2018-07-10T23:44:50.771Z,7.47
2018-07-10T23:47:26.130Z,6.73
2018-07-10T23:50:15.413Z,7.53
2018-07-10T23:52:56.033Z,5.53
2018-07-10T23:55:24.478Z,5.27
2018-07-10T23:57:53.016Z,5.33
